Time;durP1;ratioP1;P1;durP2;ratioP2;P2;SDS_P1;SDS_P2;PMS_P1;PMS_P2;Temp;Humidity;BMP_temperature;BMP_pressure;BME280_temperature;BME280_humidity;BME280_pressure;Samples;Min_cycle;Max_cycle;Signal;HPM_P1;HPM_P2
2022/10/17 00:01:02;;;;;;;7.53;6.93;;;25.80;68.50;;;;;;5094656;28;20943;-88
2022/10/17 00:03:29;;;;;;;7.33;6.80;;;25.80;68.50;;;;;;5093622;28;20562;-86
2022/10/17 00:05:56;;;;;;;7.77;7.17;;;25.80;68.50;;;;;;5092799;28;20521;-87
2022/10/17 00:08:24;;;;;;;7.60;7.00;;;25.80;68.50;;;;;;5095342;28;20462;-86
2022/10/17 00:11:00;;;;;;;8.07;7.47;;;25.80;68.40;;;;;;5097091;28;20452;-87
2022/10/17 00:13:27;;;;;;;7.30;6.73;;;25.80;68.40;;;;;;5096626;28;20909;-87
2022/10/17 00:15:54;;;;;;;7.70;7.10;;;25.80;68.40;;;;;;5097071;28;20471;-87
2022/10/17 00:18:21;;;;;;;7.67;6.97;;;25.80;68.50;;;;;;5097231;28;20802;-87
2022/10/17 00:20:47;;;;;;;7.83;7.23;;;25.80;68.40;;;;;;5096922;28;20946;-87
2022/10/17 00:23:14;;;;;;;8.07;7.37;;;25.80;68.40;;;;;;5096645;28;20466;-87
2022/10/17 00:25:43;;;;;;;7.20;6.67;;;25.80;68.40;;;;;;5096253;28;20480;-87
2022/10/17 00:28:14;;;;;;;7.30;6.70;;;25.80;68.40;;;;;;5096495;28;20446;-87
2022/10/17 00:30:41;;;;;;;7.67;7.07;;;25.80;68.40;;;;;;5096214;28;20445;-87
2022/10/17 00:33:08;;;;;;;7.43;6.83;;;25.70;68.30;;;;;;5096507;28;20486;-87
2022/10/17 00:35:35;;;;;;;7.50;6.90;;;25.70;68.30;;;;;;5096359;28;20446;-88
2022/10/17 00:38:02;;;;;;;7.23;6.63;;;25.70;68.20;;;;;;5096519;28;20536;-87
2022/10/17 00:40:29;;;;;;;6.40;5.90;;;25.70;68.20;;;;;;5096464;28;20531;-87
2022/10/17 00:42:57;;;;;;;6.97;6.37;;;25.70;68.30;;;;;;5096146;28;20522;-88
2022/10/17 00:45:26;;;;;;;7.00;6.40;;;25.70;68.30;;;;;;5096051;28;20530;-87
2022/10/17 00:47:57;;;;;;;6.67;6.17;;;25.80;68.40;;;;;;5096077;28;20443;-87
2022/10/17 00:50:25;;;;;;;6.53;6.03;;;25.70;68.20;;;;;;5096247;28;20438;-87
2022/10/17 00:52:53;;;;;;;6.13;5.73;;;25.70;68.20;;;;;;5095830;28;20500;-87
2022/10/17 00:55:24;;;;;;;6.50;6.00;;;25.70;68.20;;;;;;5095912;28;20439;-87
2022/10/17 00:57:51;;;;;;;6.70;6.10;;;25.70;68.20;;;;;;5096120;28;20446;-87
2022/10/17 01:00:21;;;;;;;6.40;5.90;;;25.70;68.20;;;;;;5097096;28;20463;-87
2022/10/17 01:02:48;;;;;;;5.90;5.40;;;25.70;68.20;;;;;;5097498;28;20439;-87
2022/10/17 01:05:16;;;;;;;6.10;5.70;;;25.70;68.20;;;;;;5097192;28;21017;-87
2022/10/17 01:07:45;;;;;;;5.90;5.50;;;25.70;68.20;;;;;;5096439;28;20469;-87
2022/10/17 01:10:13;;;;;;;5.33;4.93;;;25.70;68.20;;;;;;5095831;28;20864;-88
2022/10/17 01:12:56;;;;;;;6.07;5.60;;;25.70;68.20;;;;;;5095714;28;20497;-87
2022/10/17 01:15:34;;;;;;;5.80;5.40;;;25.70;68.30;;;;;;5095605;28;20450;-86
2022/10/17 01:18:12;;;;;;;5.80;5.40;;;25.70;68.20;;;;;;5095717;28;20535;-88
2022/10/17 01:21:12;;;;;;;5.77;5.37;;;25.70;68.20;;;;;;5095547;28;20974;-87
2022/10/17 01:24:08;;;;;;;5.97;5.47;;;25.70;68.10;;;;;;5095323;28;20461;-87
2022/10/17 01:26:52;;;;;;;5.57;5.17;;;25.70;68.20;;;;;;5095309;28;20526;-87
2022/10/17 01:29:47;;;;;;;5.50;5.10;;;25.70;68.20;;;;;;5095718;28;20443;-87
2022/10/17 01:32:18;;;;;;;5.27;4.87;;;25.70;68.20;;;;;;5095101;28;20475;-86
2022/10/17 01:34:51;;;;;;;5.47;5.03;;;25.70;68.20;;;;;;5095204;28;20446;-87
2022/10/17 01:37:26;;;;;;;5.20;4.80;;;25.70;69.10;;;;;;5095309;28;20448;-88
2022/10/17 01:39:58;;;;;;;4.43;4.13;;;25.70;68.20;;;;;;5095380;28;21024;-87
2022/10/17 01:42:30;;;;;;;5.23;4.83;;;25.60;68.20;;;;;;5095488;28;20435;-86
2022/10/17 01:45:01;;;;;;;5.20;4.80;;;25.70;68.20;;;;;;5094990;28;20466;-88
2022/10/17 01:47:31;;;;;;;6.50;5.93;;;25.70;68.10;;;;;;5095214;28;20446;-87
2022/10/17 01:50:03;;;;;;;5.23;4.93;;;25.70;68.10;;;;;;5095251;28;20447;-87
2022/10/17 01:52:38;;;;;;;5.23;4.83;;;25.70;68.10;;;;;;5095013;28;20584;-87
2022/10/17 01:55:11;;;;;;;4.80;4.50;;;25.70;68.10;;;;;;5094920;28;20439;-88
2022/10/17 01:57:40;;;;;;;5.33;4.83;;;25.70;68.10;;;;;;5094880;28;20440;-87
2022/10/17 02:00:13;;;;;;;5.03;4.63;;;25.60;68.10;;;;;;5094852;28;20864;-86
2022/10/17 02:02:43;;;;;;;5.00;4.60;;;25.60;68.10;;;;;;5096284;28;21024;-87
2022/10/17 02:05:10;;;;;;;4.67;4.37;;;25.70;68.10;;;;;;5095706;28;20439;-87
2022/10/17 02:07:37;;;;;;;4.67;4.37;;;25.60;68.00;;;;;;5094598;28;20435;-87
2022/10/17 02:10:10;;;;;;;4.27;3.87;;;25.70;68.10;;;;;;5094668;28;20438;-88
2022/10/17 02:12:49;;;;;;;5.00;4.60;;;25.70;68.10;;;;;;5094651;28;20505;-86
2022/10/17 02:15:37;;;;;;;4.73;4.43;;;25.70;68.00;;;;;;5094623;28;20779;-87
2022/10/17 02:18:16;;;;;;;5.70;5.30;;;25.70;68.00;;;;;;5094918;28;20525;-87
2022/10/17 02:20:52;;;;;;;4.63;4.23;;;25.60;68.00;;;;;;5094396;28;20452;-86
2022/10/17 02:23:25;;;;;;;4.20;3.90;;;25.60;68.10;;;;;;5094600;28;20473;-87
2022/10/17 02:26:01;;;;;;;4.30;4.00;;;25.60;68.10;;;;;;5094428;28;20445;-86
2022/10/17 02:28:33;;;;;;;4.40;4.10;;;25.60;68.10;;;;;;5094523;28;20446;-87
2022/10/17 02:31:04;;;;;;;4.37;4.07;;;25.60;68.10;;;;;;5093931;28;20469;-87
2022/10/17 02:33:35;;;;;;;4.40;4.10;;;25.60;68.10;;;;;;5094452;28;20573;-85
2022/10/17 02:36:06;;;;;;;3.93;3.73;;;25.60;68.20;;;;;;5094547;28;20432;-86
2022/10/17 02:38:35;;;;;;;4.07;3.80;;;25.60;68.10;;;;;;5094802;28;20520;-87
2022/10/17 02:41:03;;;;;;;4.13;3.83;;;25.60;68.10;;;;;;5094862;28;20439;-87
2022/10/17 02:43:30;;;;;;;4.33;4.03;;;25.60;68.10;;;;;;5094892;28;20426;-86
2022/10/17 02:45:57;;;;;;;3.90;3.70;;;25.60;68.10;;;;;;5095137;28;20441;-88
2022/10/17 02:48:28;;;;;;;4.10;3.90;;;25.60;68.10;;;;;;5093881;28;20462;-87
2022/10/17 02:51:05;;;;;;;3.33;3.13;;;25.60;68.10;;;;;;5093828;28;20474;-87
2022/10/17 02:53:38;;;;;;;3.63;3.43;;;25.60;68.00;;;;;;5093788;28;20482;-88
2022/10/17 02:56:13;;;;;;;3.93;3.70;;;25.70;68.20;;;;;;5093872;28;20442;-89
2022/10/17 02:58:42;;;;;;;4.50;4.20;;;25.60;69.00;;;;;;5093822;28;20465;-87
2022/10/17 03:01:09;;;;;;;3.63;3.43;;;25.60;68.20;;;;;;5093560;28;20533;-87
2022/10/17 03:03:36;;;;;;;3.53;3.33;;;25.60;68.10;;;;;;5093764;28;20442;-87
2022/10/17 03:06:05;;;;;;;4.30;4.00;;;25.60;68.10;;;;;;5093529;28;20446;-86
2022/10/17 03:08:31;;;;;;;3.83;3.53;;;25.60;68.10;;;;;;5093609;28;20442;-87
2022/10/17 03:10:58;;;;;;;4.23;3.93;;;25.60;68.10;;;;;;5093670;28;20782;-86
2022/10/17 03:13:25;;;;;;;3.70;3.50;;;25.60;68.10;;;;;;5093492;28;20479;-87
2022/10/17 03:15:52;;;;;;;3.53;3.33;;;25.60;68.10;;;;;;5093648;28;20435;-87
2022/10/17 03:18:19;;;;;;;3.77;3.53;;;25.60;68.20;;;;;;5093625;28;20518;-87
2022/10/17 03:20:45;;;;;;;4.17;3.87;;;25.60;68.10;;;;;;5099135;28;20436;-86
2022/10/17 03:23:14;;;;;;;3.70;3.50;;;25.60;69.00;;;;;;5116315;28;20478;-87
2022/10/17 03:25:40;;;;;;;3.60;3.40;;;25.60;68.10;;;;;;5116861;28;20410;-87
2022/10/17 03:28:07;;;;;;;4.00;3.80;;;25.60;68.20;;;;;;5111665;28;21051;-87
2022/10/17 03:30:34;;;;;;;3.63;3.43;;;25.60;68.20;;;;;;5096000;28;20444;-86
2022/10/17 03:33:04;;;;;;;4.00;3.70;;;25.60;68.20;;;;;;5095589;28;20481;-86
2022/10/17 03:35:31;;;;;;;3.73;3.43;;;25.60;68.10;;;;;;5094116;28;20859;-85
2022/10/17 03:37:58;;;;;;;3.50;3.30;;;25.60;68.20;;;;;;5093919;28;20468;-87
2022/10/17 03:40:26;;;;;;;3.17;2.97;;;25.60;68.20;;;;;;5093507;28;20928;-86
2022/10/17 03:42:56;;;;;;;3.07;2.87;;;25.60;68.20;;;;;;5095161;28;20534;-86
2022/10/17 03:45:23;;;;;;;3.73;3.53;;;25.60;68.20;;;;;;5097807;28;20438;-86
2022/10/17 03:47:49;;;;;;;4.00;3.70;;;25.60;68.20;;;;;;5097665;28;20537;-86
2022/10/17 03:50:17;;;;;;;4.07;3.80;;;25.60;68.20;;;;;;5097568;28;21017;-87
2022/10/17 03:52:46;;;;;;;4.00;3.70;;;25.60;68.20;;;;;;5098879;28;20464;-86
2022/10/17 03:55:13;;;;;;;2.80;2.60;;;25.60;68.20;;;;;;5098944;28;20449;-86
2022/10/17 03:57:42;;;;;;;3.20;3.00;;;25.60;68.20;;;;;;5098773;28;20449;-86
2022/10/17 04:00:13;;;;;;;3.33;3.13;;;25.60;68.20;;;;;;5098998;28;20863;-85
2022/10/17 04:02:40;;;;;;;2.80;2.60;;;25.60;68.20;;;;;;5097256;28;20444;-86
2022/10/17 04:05:08;;;;;;;3.37;3.17;;;25.60;68.30;;;;;;5097059;28;20472;-85
2022/10/17 04:07:36;;;;;;;3.43;3.23;;;25.50;68.20;;;;;;5097076;28;20444;-86
2022/10/17 04:10:03;;;;;;;2.87;2.67;;;25.50;68.10;;;;;;5097190;28;20474;-86
2022/10/17 04:12:30;;;;;;;3.00;2.80;;;25.50;68.20;;;;;;5097209;28;20474;-86
2022/10/17 04:14:58;;;;;;;3.30;3.10;;;25.50;68.30;;;;;;5097043;28;20564;-86
2022/10/17 04:17:25;;;;;;;3.10;2.90;;;25.60;68.30;;;;;;5096974;28;20434;-86
2022/10/17 04:19:52;;;;;;;2.97;2.77;;;25.50;68.20;;;;;;5096717;28;20443;-86
2022/10/17 04:22:19;;;;;;;3.50;3.30;;;25.50;68.20;;;;;;5096836;28;20557;-86
2022/10/17 04:24:45;;;;;;;3.27;3.07;;;25.50;68.20;;;;;;5096793;28;20545;-85
2022/10/17 04:27:12;;;;;;;2.90;2.70;;;25.50;68.30;;;;;;5096993;28;20448;-85
2022/10/17 04:29:39;;;;;;;3.07;2.87;;;25.50;68.20;;;;;;5097366;28;20985;-86
2022/10/17 04:32:07;;;;;;;3.20;3.00;;;25.50;68.30;;;;;;5096940;28;20470;-86
2022/10/17 04:34:34;;;;;;;2.27;2.17;;;25.60;68.40;;;;;;5096899;28;20509;-87
2022/10/17 04:37:01;;;;;;;3.03;2.83;;;25.50;69.10;;;;;;5096787;28;20435;-86
2022/10/17 04:39:29;;;;;;;3.33;3.13;;;25.60;68.30;;;;;;5096650;28;20808;-86
2022/10/17 04:41:57;;;;;;;2.67;2.57;;;25.50;68.20;;;;;;5095861;28;20437;-85
2022/10/17 04:44:24;;;;;;;3.37;3.17;;;25.50;68.30;;;;;;5081431;28;20478;-86
2022/10/17 04:46:52;;;;;;;3.23;3.03;;;25.50;68.30;;;;;;5077733;28;20462;-86
2022/10/17 04:49:20;;;;;;;2.70;2.60;;;25.50;68.40;;;;;;5076926;28;20445;-86
2022/10/17 04:51:47;;;;;;;2.40;2.30;;;25.50;68.30;;;;;;5076357;28;20448;-87
2022/10/17 04:54:13;;;;;;;2.40;2.30;;;25.50;68.30;;;;;;5075261;28;20571;-85
2022/10/17 04:56:41;;;;;;;2.53;2.40;;;25.50;68.30;;;;;;5076250;28;20854;-86
2022/10/17 04:59:07;;;;;;;2.60;2.50;;;25.50;68.30;;;;;;5075643;28;21015;-85
2022/10/17 05:01:34;;;;;;;2.70;2.60;;;25.50;68.30;;;;;;5075667;28;20493;-85
2022/10/17 05:04:01;;;;;;;2.67;2.53;;;25.50;68.40;;;;;;5080900;28;20441;-85
2022/10/17 05:06:30;;;;;;;2.70;2.60;;;25.50;68.30;;;;;;5096035;28;20443;-85
2022/10/17 05:08:58;;;;;;;2.90;2.70;;;25.50;69.20;;;;;;5096009;28;20537;-85
2022/10/17 05:11:27;;;;;;;2.43;2.33;;;25.50;68.40;;;;;;5081958;28;20537;-87
2022/10/17 05:13:55;;;;;;;2.50;2.40;;;25.50;68.40;;;;;;5078056;28;20479;-88
2022/10/17 05:16:23;;;;;;;2.50;2.40;;;25.50;68.50;;;;;;5076346;28;20521;-88
2022/10/17 05:18:50;;;;;;;2.63;2.53;;;25.50;68.50;;;;;;5077251;28;20475;-86
2022/10/17 05:21:17;;;;;;;2.57;2.37;;;25.50;68.50;;;;;;5076145;28;20435;-85
2022/10/17 05:23:46;;;;;;;3.70;2.60;;;25.50;68.50;;;;;;5075957;28;20801;-86
2022/10/17 05:26:13;;;;;;;2.40;2.30;;;25.50;68.50;;;;;;5076682;28;20453;-85
2022/10/17 05:28:40;;;;;;;2.40;2.30;;;25.50;68.60;;;;;;5076615;28;20447;-86
2022/10/17 05:31:09;;;;;;;2.73;2.53;;;25.50;68.60;;;;;;5075320;28;21070;-86
2022/10/17 05:33:37;;;;;;;2.03;1.93;;;25.50;69.50;;;;;;5075232;28;20485;-85
2022/10/17 05:36:04;;;;;;;2.30;2.20;;;25.50;68.60;;;;;;5075468;28;20554;-86
2022/10/17 05:38:31;;;;;;;2.80;2.60;;;25.50;68.70;;;;;;5075129;28;20483;-90
2022/10/17 05:41:00;;;;;;;2.33;2.03;;;25.50;68.80;;;;;;5074883;28;20450;-86
2022/10/17 05:43:27;;;;;;;1.80;1.70;;;25.50;69.20;;;;;;5075116;28;20460;-87
2022/10/17 05:45:55;;;;;;;2.00;1.90;;;25.50;69.50;;;;;;5075325;28;20865;-86
2022/10/17 05:48:22;;;;;;;2.20;2.10;;;25.50;69.40;;;;;;5075272;28;20446;-85
2022/10/17 05:50:49;;;;;;;2.77;2.57;;;25.50;69.10;;;;;;5075170;28;20438;-86
2022/10/17 05:53:16;;;;;;;2.20;2.10;;;25.50;69.00;;;;;;5074852;28;20550;-86
2022/10/17 05:55:43;;;;;;;2.40;2.30;;;25.50;69.00;;;;;;5089330;28;20478;-86
2022/10/17 05:58:11;;;;;;;2.20;2.10;;;25.50;69.10;;;;;;5095032;28;20440;-87
2022/10/17 06:00:38;;;;;;;1.70;1.60;;;25.50;69.20;;;;;;5094939;28;20438;-87
2022/10/17 06:03:05;;;;;;;2.03;1.93;;;25.50;69.10;;;;;;5094940;28;20431;-87
2022/10/17 06:05:34;;;;;;;2.57;2.40;;;25.50;69.10;;;;;;5094101;28;20845;-87
2022/10/17 06:08:01;;;;;;;2.00;1.90;;;25.50;69.20;;;;;;5094924;28;20433;-87
2022/10/17 06:10:28;;;;;;;2.30;2.20;;;25.50;69.20;;;;;;5094788;28;20449;-86
2022/10/17 06:12:55;;;;;;;2.00;1.90;;;25.50;69.30;;;;;;5094714;28;20983;-88
2022/10/17 06:15:23;;;;;;;1.90;1.80;;;25.50;69.30;;;;;;5094524;28;20945;-90
2022/10/17 06:17:50;;;;;;;2.73;2.53;;;25.50;69.40;;;;;;5085022;28;20544;-87
2022/10/17 06:20:17;;;;;;;2.13;2.03;;;25.50;69.40;;;;;;5086438;28;20447;-87
2022/10/17 06:22:44;;;;;;;2.17;2.07;;;25.50;69.30;;;;;;5094447;28;20461;-89
2022/10/17 06:25:11;;;;;;;3.00;2.03;;;25.50;69.20;;;;;;5095436;28;20854;-90
2022/10/17 06:27:38;;;;;;;1.80;1.70;;;25.50;69.30;;;;;;5094836;28;20537;-89
2022/10/17 06:30:06;;;;;;;2.27;2.17;;;25.50;69.40;;;;;;5094332;28;20498;-90
2022/10/17 06:32:35;;;;;;;2.03;1.93;;;25.50;69.40;;;;;;5093914;28;20845;-90
2022/10/17 06:35:01;;;;;;;2.17;2.07;;;25.50;69.40;;;;;;5094269;28;20579;-89
2022/10/17 06:37:31;;;;;;;1.90;1.80;;;25.50;69.40;;;;;;5094605;28;20870;-91
2022/10/17 06:39:58;;;;;;;1.80;1.70;;;25.50;69.40;;;;;;5094451;28;20445;-92
2022/10/17 06:42:25;;;;;;;1.93;1.83;;;25.50;69.30;;;;;;5094087;28;20488;-92
2022/10/17 06:44:52;;;;;;;1.90;1.80;;;25.50;69.30;;;;;;5094369;28;20446;-92
2022/10/17 06:47:19;;;;;;;2.00;1.90;;;25.50;69.30;;;;;;5090841;28;20458;-92
2022/10/17 06:49:47;;;;;;;2.40;2.20;;;25.50;69.30;;;;;;5083078;28;20459;-92
2022/10/17 06:52:15;;;;;;;1.77;1.60;;;25.50;69.30;;;;;;5074011;28;20473;-92
2022/10/17 06:54:42;;;;;;;2.13;2.03;;;25.50;69.30;;;;;;5075803;28;20494;-92
2022/10/17 06:57:09;;;;;;;2.20;2.10;;;25.50;70.10;;;;;;5074157;28;20529;-91
2022/10/17 06:59:36;;;;;;;4.30;2.03;;;25.50;69.40;;;;;;5074478;28;20470;-90
2022/10/17 07:02:04;;;;;;;2.03;1.93;;;25.50;69.30;;;;;;5073708;28;20941;-92
2022/10/17 07:04:31;;;;;;;2.10;2.00;;;25.50;69.30;;;;;;5074222;28;20447;-91
2022/10/17 07:07:01;;;;;;;3.00;1.70;;;25.50;69.30;;;;;;5074100;28;20510;-89
2022/10/17 07:09:29;;;;;;;2.13;2.03;;;25.50;69.20;;;;;;5073670;28;20450;-90
2022/10/17 07:11:56;;;;;;;2.00;1.90;;;25.50;69.20;;;;;;5073547;28;20542;-89
2022/10/17 07:14:30;;;;;;;1.77;1.67;;;25.50;69.20;;;;;;5073700;28;20568;-90
2022/10/17 07:16:57;;;;;;;1.90;1.80;;;25.60;69.30;;;;;;5073220;28;20440;-88
2022/10/17 07:19:24;;;;;;;1.83;1.73;;;25.50;69.10;;;;;;5073531;28;20543;-88
2022/10/17 07:21:51;;;;;;;1.90;1.80;;;25.50;70.00;;;;;;5073396;28;20463;-89
2022/10/17 07:24:19;;;;;;;1.93;1.83;;;25.60;69.20;;;;;;5073530;28;20548;-88
2022/10/17 07:26:46;;;;;;;1.77;1.67;;;25.60;69.10;;;;;;5073131;28;20490;-90
2022/10/17 07:29:13;;;;;;;2.07;1.97;;;25.60;69.10;;;;;;5073574;28;20430;-91
2022/10/17 07:31:40;;;;;;;2.07;1.93;;;25.60;69.10;;;;;;5072747;28;20903;-86
2022/10/17 07:34:07;;;;;;;1.50;1.40;;;25.60;69.00;;;;;;5073068;28;20447;-85
2022/10/17 07:36:34;;;;;;;1.60;1.50;;;25.60;69.10;;;;;;5073522;28;20536;-85
2022/10/17 07:39:00;;;;;;;1.80;1.70;;;25.50;69.00;;;;;;5073105;28;20531;-85
2022/10/17 07:41:29;;;;;;;2.23;2.10;;;25.60;69.10;;;;;;5073078;28;20447;-85
2022/10/17 07:43:56;;;;;;;1.87;1.67;;;25.60;69.30;;;;;;5073178;28;20806;-85
2022/10/17 07:46:23;;;;;;;1.80;1.70;;;25.60;69.00;;;;;;5073005;28;20481;-85
2022/10/17 07:48:50;;;;;;;1.70;1.60;;;25.60;68.90;;;;;;5072926;28;20519;-86
2022/10/17 07:51:17;;;;;;;1.67;1.57;;;25.60;68.80;;;;;;5072826;28;20453;-85
2022/10/17 07:53:44;;;;;;;1.60;1.50;;;25.60;68.80;;;;;;5072494;28;20444;-87
2022/10/17 07:56:11;;;;;;;1.87;1.77;;;25.60;68.80;;;;;;5072612;28;21000;-86
2022/10/17 07:58:40;;;;;;;2.83;1.97;;;25.70;68.90;;;;;;5072443;28;20507;-85
2022/10/17 08:01:09;;;;;;;1.97;1.87;;;25.70;68.80;;;;;;5072501;28;20450;-85
2022/10/17 08:03:36;;;;;;;1.53;1.43;;;25.70;68.80;;;;;;5072793;28;20453;-86
2022/10/17 08:06:04;;;;;;;1.60;1.50;;;25.70;68.80;;;;;;5072743;28;20443;-86
2022/10/17 08:08:30;;;;;;;1.97;1.87;;;25.70;68.80;;;;;;5072745;28;20781;-85
2022/10/17 08:11:02;;;;;;;1.87;1.77;;;25.70;68.80;;;;;;5072439;28;20439;-86
2022/10/17 08:13:29;;;;;;;1.70;1.60;;;25.70;68.80;;;;;;5072410;28;20447;-85
2022/10/17 08:16:00;;;;;;;1.60;1.50;;;25.70;68.80;;;;;;5072583;28;20844;-85
2022/10/17 08:18:27;;;;;;;1.50;1.40;;;25.70;68.90;;;;;;5072541;28;20439;-85
2022/10/17 08:20:54;;;;;;;1.47;1.37;;;25.70;68.80;;;;;;5072453;28;20449;-86
2022/10/17 08:23:21;;;;;;;1.63;1.53;;;25.80;68.90;;;;;;5072352;28;20474;-86
2022/10/17 08:25:47;;;;;;;1.53;1.43;;;25.80;68.90;;;;;;5072377;28;20809;-85
2022/10/17 08:28:14;;;;;;;1.70;1.60;;;25.80;68.80;;;;;;5073028;28;20444;-86
2022/10/17 08:30:41;;;;;;;1.53;1.43;;;25.90;68.80;;;;;;5075911;28;20442;-87
2022/10/17 08:33:09;;;;;;;1.60;1.50;;;26.00;68.70;;;;;;5076504;28;20523;-86
2022/10/17 08:35:36;;;;;;;1.40;1.30;;;26.10;68.50;;;;;;5075961;28;20498;-86
2022/10/17 08:38:03;;;;;;;1.83;1.73;;;26.10;68.40;;;;;;5076048;28;20938;-83
2022/10/17 08:40:32;;;;;;;2.00;1.90;;;26.30;68.20;;;;;;5075852;28;20451;-83
2022/10/17 08:43:20;;;;;;;1.50;1.40;;;26.40;68.00;;;;;;5075916;28;20440;-83
2022/10/17 08:45:53;;;;;;;2.23;2.00;;;26.60;68.50;;;;;;5075926;28;20439;-83
2022/10/17 08:48:25;;;;;;;2.40;1.40;;;26.80;68.20;;;;;;5075798;28;20421;-83
2022/10/17 08:50:55;;;;;;;1.87;1.77;;;27.00;67.00;;;;;;5075981;28;20432;-83
2022/10/17 08:53:29;;;;;;;1.50;1.30;;;27.20;66.60;;;;;;5075723;28;20465;-83
2022/10/17 08:55:59;;;;;;;1.67;1.57;;;27.30;66.10;;;;;;5075495;28;20491;-83
2022/10/17 08:58:32;;;;;;;1.60;1.50;;;27.40;65.80;;;;;;5075611;28;20445;-84
2022/10/17 09:01:05;;;;;;;2.00;1.90;;;27.40;65.70;;;;;;5075478;28;20455;-83
2022/10/17 09:03:52;;;;;;;1.50;1.40;;;27.50;65.90;;;;;;5075355;28;20458;-83
2022/10/17 09:06:28;;;;;;;1.53;1.43;;;27.50;65.90;;;;;;5075481;28;20445;-83
2022/10/17 09:09:09;;;;;;;1.77;1.67;;;27.40;65.90;;;;;;5075476;28;20448;-83
2022/10/17 09:11:48;;;;;;;1.80;1.70;;;27.50;66.00;;;;;;5075448;28;20448;-83
2022/10/17 09:14:57;;;;;;;2.00;1.90;;;27.30;66.00;;;;;;5075273;28;20437;-83
2022/10/17 09:17:34;;;;;;;1.40;1.30;;;27.30;66.20;;;;;;5071737;28;20458;-83
2022/10/17 09:20:09;;;;;;;1.60;1.50;;;27.30;66.60;;;;;;5075263;28;20531;-83
2022/10/17 09:22:41;;;;;;;1.70;1.60;;;27.40;66.40;;;;;;5075257;28;20460;-83
2022/10/17 09:25:13;;;;;;;1.30;1.20;;;27.50;66.30;;;;;;5075186;28;20447;-83
2022/10/17 09:27:44;;;;;;;1.67;1.57;;;27.50;66.20;;;;;;5075020;28;20445;-83
2022/10/17 09:30:35;;;;;;;1.20;1.10;;;27.60;66.10;;;;;;5075157;28;20528;-83
2022/10/17 09:33:11;;;;;;;1.50;1.40;;;27.80;65.70;;;;;;5074030;28;20493;-83
2022/10/17 09:35:41;;;;;;;1.47;1.37;;;27.70;65.70;;;;;;5075170;28;20469;-83
2022/10/17 09:38:17;;;;;;;1.60;1.50;;;27.70;65.80;;;;;;5075179;28;20437;-83
2022/10/17 09:40:45;;;;;;;1.53;1.43;;;27.80;65.60;;;;;;5074858;28;20451;-83
2022/10/17 09:43:14;;;;;;;1.87;1.50;;;27.90;65.70;;;;;;5074857;28;20441;-83
2022/10/17 09:45:46;;;;;;;1.40;1.30;;;27.90;65.60;;;;;;5074592;28;20487;-83
2022/10/17 09:48:22;;;;;;;1.40;1.30;;;28.10;65.40;;;;;;5074507;28;20451;-83
2022/10/17 09:50:51;;;;;;;1.23;1.13;;;28.10;65.10;;;;;;5074683;28;20444;-83
2022/10/17 09:53:22;;;;;;;1.30;1.20;;;28.00;65.20;;;;;;5073750;28;20465;-84
2022/10/17 09:55:54;;;;;;;1.50;1.40;;;28.00;65.50;;;;;;5073484;28;20497;-84
2022/10/17 09:58:22;;;;;;;1.27;1.17;;;27.80;65.50;;;;;;5074131;28;20553;-83
2022/10/17 10:00:49;;;;;;;2.93;1.50;;;27.70;65.80;;;;;;5074234;28;20454;-83
2022/10/17 10:03:18;;;;;;;1.47;1.37;;;27.60;66.10;;;;;;5074359;28;20539;-83
2022/10/17 10:06:01;;;;;;;1.53;1.43;;;27.50;66.40;;;;;;5074235;28;20962;-83
2022/10/17 10:08:33;;;;;;;1.20;1.10;;;27.40;66.60;;;;;;5074309;28;20880;-83
2022/10/17 10:11:03;;;;;;;1.40;1.30;;;27.20;66.90;;;;;;5074160;28;20450;-83
2022/10/17 10:13:32;;;;;;;1.30;1.20;;;27.10;67.10;;;;;;5074198;28;20434;-83
2022/10/17 10:16:18;;;;;;;1.33;1.23;;;27.00;67.30;;;;;;5073935;28;20481;-84
2022/10/17 10:18:45;;;;;;;1.40;1.30;;;27.00;67.60;;;;;;5074061;28;20803;-84
2022/10/17 10:21:15;;;;;;;1.63;1.53;;;26.90;67.80;;;;;;5073831;28;20442;-84
2022/10/17 10:23:44;;;;;;;1.57;1.40;;;26.80;68.70;;;;;;5073986;28;20443;-84
2022/10/17 10:26:20;;;;;;;1.50;1.40;;;26.70;68.00;;;;;;5073894;28;20436;-83
2022/10/17 10:28:53;;;;;;;1.37;1.27;;;26.70;68.20;;;;;;5073896;28;20440;-86
2022/10/17 10:31:31;;;;;;;1.20;1.10;;;26.70;68.30;;;;;;5073803;28;20475;-86
2022/10/17 10:34:01;;;;;;;1.30;1.20;;;26.60;68.40;;;;;;5074143;28;20450;-86
2022/10/17 10:36:46;;;;;;;1.30;1.20;;;26.50;68.40;;;;;;5073752;28;20506;-85
2022/10/17 10:39:26;;;;;;;2.33;1.60;;;26.50;68.50;;;;;;5073714;28;20446;-86
2022/10/17 10:41:53;;;;;;;1.83;1.50;;;26.50;68.70;;;;;;5073809;28;20436;-86
2022/10/17 10:44:23;;;;;;;1.33;1.23;;;26.40;68.70;;;;;;5073659;28;20451;-86
2022/10/17 10:47:14;;;;;;;1.60;1.50;;;26.40;68.80;;;;;;5073540;28;20451;-86
2022/10/17 10:49:42;;;;;;;1.53;1.43;;;26.40;68.80;;;;;;5073624;28;20488;-86
2022/10/17 10:52:16;;;;;;;1.50;1.40;;;26.30;68.90;;;;;;5073343;28;20464;-86
2022/10/17 10:54:56;;;;;;;1.10;1.00;;;26.40;69.00;;;;;;5073741;28;20455;-86
2022/10/17 10:57:28;;;;;;;1.40;1.30;;;26.30;69.00;;;;;;5073877;28;20543;-86
2022/10/17 11:00:01;;;;;;;1.37;1.27;;;26.30;69.00;;;;;;5073417;28;20447;-86
2022/10/17 11:02:34;;;;;;;1.33;1.23;;;26.30;69.00;;;;;;5073215;28;20550;-86
2022/10/17 11:05:06;;;;;;;1.70;1.60;;;26.30;69.00;;;;;;5073227;28;20440;-86
2022/10/17 11:07:38;;;;;;;1.50;1.40;;;26.30;69.10;;;;;;5073360;28;20470;-86
2022/10/17 11:10:12;;;;;;;1.20;1.10;;;26.30;69.10;;;;;;5073686;28;20936;-86
2022/10/17 11:12:43;;;;;;;1.50;1.40;;;26.20;69.10;;;;;;5073288;28;20436;-86
2022/10/17 11:15:20;;;;;;;2.63;1.33;;;26.20;70.00;;;;;;5073160;28;20819;-86
2022/10/17 11:17:56;;;;;;;1.50;1.40;;;26.20;69.10;;;;;;5073194;28;20452;-86
2022/10/17 11:20:32;;;;;;;1.20;1.10;;;26.20;69.20;;;;;;5072984;28;20455;-86
2022/10/17 11:23:09;;;;;;;1.23;1.13;;;26.20;69.30;;;;;;5073120;28;20459;-86
2022/10/17 11:25:38;;;;;;;1.23;1.13;;;26.20;69.30;;;;;;5073115;28;20470;-86
2022/10/17 11:28:12;;;;;;;1.30;1.20;;;26.20;69.30;;;;;;5078242;28;20445;-86
2022/10/17 11:30:45;;;;;;;1.13;1.03;;;26.20;69.30;;;;;;5073172;28;20526;-87
2022/10/17 11:33:18;;;;;;;1.40;1.30;;;26.20;69.40;;;;;;5073483;28;20906;-86
2022/10/17 11:35:47;;;;;;;1.20;1.10;;;26.20;69.40;;;;;;5073170;28;20479;-86
2022/10/17 11:38:21;;;;;;;1.80;1.27;;;26.20;69.50;;;;;;5073952;28;20493;-86
2022/10/17 11:40:51;;;;;;;1.70;1.60;;;26.20;69.50;;;;;;5075635;28;20446;-86
2022/10/17 11:43:22;;;;;;;1.20;1.10;;;26.20;69.50;;;;;;5073111;28;20921;-86
2022/10/17 11:45:55;;;;;;;1.43;1.20;;;26.20;69.50;;;;;;5073036;28;20803;-86
2022/10/17 11:48:27;;;;;;;1.40;1.30;;;26.20;69.50;;;;;;5073158;28;20450;-86
2022/10/17 11:51:00;;;;;;;1.10;1.00;;;26.20;69.60;;;;;;5072889;28;20446;-86
2022/10/17 11:53:33;;;;;;;1.17;1.07;;;26.20;69.60;;;;;;5072748;28;20447;-86
2022/10/17 11:56:01;;;;;;;1.40;1.30;;;26.20;69.60;;;;;;5072835;28;20480;-86
2022/10/17 11:58:34;;;;;;;1.20;1.10;;;26.20;69.60;;;;;;5073032;28;20528;-86
2022/10/17 12:01:13;;;;;;;1.17;1.07;;;26.20;69.60;;;;;;5072654;28;20450;-86
2022/10/17 12:03:51;;;;;;;1.20;1.10;;;26.20;69.60;;;;;;5073702;28;20545;-87
2022/10/17 12:06:34;;;;;;;1.20;1.10;;;26.20;69.70;;;;;;5076651;28;20437;-91
2022/10/17 12:09:11;;;;;;;3.73;1.23;;;26.20;69.80;;;;;;5076849;28;20437;-87
2022/10/17 12:11:49;;;;;;;1.50;1.40;;;26.10;69.80;;;;;;5076129;28;20446;-87
2022/10/17 12:14:44;;;;;;;1.70;1.60;;;26.20;69.80;;;;;;5076588;28;20527;-87
2022/10/17 12:17:31;;;;;;;1.50;1.40;;;26.20;69.70;;;;;;5076603;28;20985;-87
2022/10/17 12:20:24;;;;;;;1.20;1.10;;;26.10;69.70;;;;;;5076460;28;20556;-87
2022/10/17 12:22:53;;;;;;;1.53;1.43;;;26.20;69.70;;;;;;5076254;28;20459;-89
2022/10/17 12:25:25;;;;;;;2.13;1.20;;;26.10;69.80;;;;;;5076161;28;20436;-88
2022/10/17 12:28:12;;;;;;;1.37;1.27;;;26.10;69.70;;;;;;5076228;28;20451;-87
2022/10/17 12:30:50;;;;;;;1.13;1.03;;;26.10;69.70;;;;;;5076040;28;20447;-90
2022/10/17 12:33:21;;;;;;;1.30;1.20;;;26.10;69.80;;;;;;5076349;28;20780;-88
2022/10/17 12:35:49;;;;;;;1.30;1.20;;;26.10;69.80;;;;;;5076041;28;20483;-89
2022/10/17 12:38:25;;;;;;;1.13;1.03;;;26.10;69.80;;;;;;5076132;28;20444;-90
2022/10/17 12:41:01;;;;;;;1.30;1.20;;;26.10;69.70;;;;;;5076454;28;20429;-90
2022/10/17 12:43:45;;;;;;;2.03;1.17;;;26.10;69.80;;;;;;5076468;28;20432;-88
2022/10/17 12:46:12;;;;;;;1.57;1.47;;;26.10;69.80;;;;;;5076464;28;20485;-87
2022/10/17 12:49:04;;;;;;;2.20;1.53;;;26.00;69.70;;;;;;5075977;28;20447;-87
2022/10/17 12:52:15;;;;;;;1.20;1.10;;;26.10;69.70;;;;;;5076241;28;20472;-87
2022/10/17 12:54:45;;;;;;;1.20;1.10;;;26.10;69.80;;;;;;5075875;28;20443;-87
2022/10/17 12:57:30;;;;;;;1.20;1.10;;;26.00;69.80;;;;;;5075938;28;20479;-87
2022/10/17 12:59:57;;;;;;;1.30;1.20;;;26.00;69.80;;;;;;5075727;28;20496;-88
2022/10/17 13:02:28;;;;;;;1.50;1.40;;;26.00;69.90;;;;;;5075901;28;20450;-90
2022/10/17 13:05:05;;;;;;;1.10;1.00;;;26.10;69.90;;;;;;5075970;28;20444;-90
2022/10/17 13:07:34;;;;;;;1.40;1.30;;;26.00;69.80;;;;;;5076159;28;20447;-90